createdAt,value
2023-02-11T00:04:25.079Z,97533.81
2023-02-11T00:09:27.726Z,97537.69
2023-02-11T00:14:30.944Z,97538.97
2023-02-11T00:19:33.346Z,97543.69
2023-02-11T00:24:35.946Z,97538.72
2023-02-11T00:29:38.314Z,97540.06
2023-02-11T00:34:40.743Z,97532.59
2023-02-11T00:39:43.200Z,97530.88
2023-02-11T00:44:45.788Z,97528.81
2023-02-11T00:49:48.082Z,97528.00
2023-02-11T00:54:50.465Z,97513.19
2023-02-11T00:59:52.857Z,97510.13
2023-02-11T01:04:55.386Z,97516.47
2023-02-11T01:09:57.793Z,97515.66
2023-02-11T01:15:00.329Z,97508.75
2023-02-11T01:20:02.806Z,97516.72
2023-02-11T01:25:05.176Z,97514.06
2023-02-11T01:30:07.600Z,97505.75
2023-02-11T01:35:10.115Z,97503.00
2023-02-11T01:40:12.462Z,97504.13
2023-02-11T01:45:14.805Z,97499.69
2023-02-11T01:50:17.293Z,97503.81
2023-02-11T01:55:42.616Z,97502.47
2023-02-11T02:00:44.916Z,97505.38
2023-02-11T02:05:47.235Z,97514.69
2023-02-11T02:10:49.753Z,97500.75
2023-02-11T02:15:52.441Z,97498.13
2023-02-11T02:20:55.235Z,97495.50
2023-02-11T02:25:57.950Z,97480.16
2023-02-11T02:31:00.633Z,97465.19
2023-02-11T02:36:03.101Z,97458.28
2023-02-11T02:41:05.591Z,97450.41
2023-02-11T02:46:07.890Z,97455.22
2023-02-11T02:51:10.313Z,97457.72
2023-02-11T02:56:12.752Z,97440.22
2023-02-11T03:01:15.238Z,97426.91
2023-02-11T03:06:17.660Z,97427.41
2023-02-11T03:11:20.299Z,97421.03
2023-02-11T03:16:22.749Z,97409.13
2023-02-11T03:21:25.040Z,97407.31
2023-02-11T03:26:27.591Z,97397.72
2023-02-11T03:31:29.997Z,97402.75
2023-02-11T03:36:32.605Z,97398.16
2023-02-11T03:41:34.978Z,97414.09
2023-02-11T03:46:37.324Z,97410.84
2023-02-11T03:51:39.671Z,97406.50
2023-02-11T03:56:42.055Z,97417.97
2023-02-11T04:01:44.592Z,97411.63
2023-02-11T04:06:47.116Z,97410.47
2023-02-11T04:11:49.447Z,97414.47
2023-02-11T04:16:52.014Z,97418.16
2023-02-11T04:21:54.411Z,97433.88
2023-02-11T04:26:56.700Z,97429.47
2023-02-11T04:31:59.049Z,97431.84
2023-02-11T04:37:02.270Z,97429.09
2023-02-11T04:42:04.645Z,97446.22
2023-02-11T04:47:07.062Z,97453.03
2023-02-11T04:52:09.378Z,97451.78
2023-02-11T04:57:11.711Z,97469.03
2023-02-11T05:02:14.024Z,97468.22
2023-02-11T05:07:16.541Z,97460.84
2023-02-11T05:12:18.868Z,97454.53
2023-02-11T05:17:21.248Z,97450.63
2023-02-11T05:22:23.558Z,97450.22
2023-02-11T05:27:25.942Z,97438.47
2023-02-11T05:32:28.259Z,97431.06
2023-02-11T05:37:30.717Z,97432.09
2023-02-11T05:42:33.187Z,97411.06
2023-02-11T05:47:35.652Z,97412.91
2023-02-11T05:52:37.981Z,97421.38
2023-02-11T05:57:40.394Z,97404.56
2023-02-11T06:02:42.776Z,97401.00
2023-02-11T06:07:45.209Z,97391.31
2023-02-11T06:12:47.511Z,97383.59
2023-02-11T06:17:49.867Z,97399.78
2023-02-11T06:22:52.466Z,97412.81
2023-02-11T06:27:55.113Z,97413.34
2023-02-11T06:32:57.641Z,97417.97
2023-02-11T06:38:00.039Z,97418.09
2023-02-11T06:43:02.616Z,97418.63
2023-02-11T06:48:04.980Z,97398.53
2023-02-11T06:53:07.389Z,97403.63
2023-02-11T06:58:09.988Z,97417.41
2023-02-11T07:03:12.279Z,97426.69
2023-02-11T07:08:14.685Z,97433.44
2023-02-11T07:13:17.385Z,97420.09
2023-02-11T07:18:19.754Z,97420.41
2023-02-11T07:23:22.171Z,97408.88
2023-02-11T07:28:24.758Z,97392.00
2023-02-11T07:33:27.232Z,97394.63
2023-02-11T07:38:29.634Z,97411.16
2023-02-11T07:43:32.022Z,97401.72
2023-02-11T07:48:34.424Z,97392.56
2023-02-11T07:53:36.752Z,97392.84
2023-02-11T07:58:39.279Z,97401.53
2023-02-11T08:03:41.968Z,97376.50
2023-02-11T08:08:44.243Z,97372.84
2023-02-11T08:13:46.664Z,97377.06
2023-02-11T08:18:48.909Z,97373.13
2023-02-11T08:23:51.240Z,97362.94
2023-02-11T08:28:53.598Z,97355.53
2023-02-11T08:33:58.033Z,97367.69
2023-02-11T08:39:17.447Z,97374.22
2023-02-11T08:44:20.830Z,97396.16
2023-02-11T08:49:23.357Z,97390.50
2023-02-11T08:54:25.721Z,97387.94
2023-02-11T08:59:27.999Z,97392.22
2023-02-11T09:04:30.358Z,97379.00
2023-02-11T09:09:32.833Z,97376.81
2023-02-11T09:14:35.139Z,97360.50
2023-02-11T09:19:37.617Z,97365.19
2023-02-11T09:24:40.035Z,97363.38
2023-02-11T09:29:42.407Z,97345.47
2023-02-11T09:34:44.851Z,97356.25
2023-02-11T09:39:47.128Z,97359.75
2023-02-11T09:44:49.431Z,97369.50
2023-02-11T09:49:51.727Z,97367.16
2023-02-11T09:54:54.072Z,97376.84
2023-02-11T09:59:57.587Z,97359.06
2023-02-11T10:04:59.892Z,97338.13
2023-02-11T10:10:02.202Z,97338.31
2023-02-11T10:15:04.491Z,97331.19
2023-02-11T10:20:06.895Z,97335.75
2023-02-11T10:25:09.282Z,97342.28
2023-02-11T10:30:11.626Z,97353.50
2023-02-11T10:35:15.202Z,97344.03
2023-02-11T10:40:17.533Z,97326.91
2023-02-11T10:45:20.015Z,97349.13
2023-02-11T10:50:22.451Z,97340.97
2023-02-11T10:55:24.817Z,97334.97
2023-02-11T11:00:27.202Z,97319.59
2023-02-11T11:05:29.669Z,97310.16
2023-02-11T11:10:32.135Z,97308.44
2023-02-11T11:15:34.603Z,97299.22
2023-02-11T11:20:38.035Z,97311.66
2023-02-11T11:25:40.570Z,97294.03
2023-02-11T11:30:43.031Z,97289.25
2023-02-11T11:35:45.458Z,97296.59
2023-02-11T11:40:47.876Z,97281.16
2023-02-11T11:45:50.466Z,97274.72
2023-02-11T11:50:53.135Z,97283.25
2023-02-11T11:55:58.606Z,97291.03
2023-02-11T12:01:02.146Z,97289.06
2023-02-11T12:06:04.524Z,97290.31
2023-02-11T12:11:07.109Z,97275.31
2023-02-11T12:16:10.088Z,97264.25
2023-02-11T12:21:12.570Z,97276.91
2023-02-11T12:26:14.938Z,97288.75
2023-02-11T12:31:17.345Z,97270.63
2023-02-11T12:36:20.704Z,97257.88
2023-02-11T12:41:43.121Z,97257.91
2023-02-11T12:46:45.553Z,97247.00
2023-02-11T12:51:47.888Z,97249.78
2023-02-11T12:56:50.299Z,97247.25
2023-02-11T13:01:52.738Z,97240.72
2023-02-11T13:06:55.316Z,97237.09
2023-02-11T13:11:57.704Z,97231.38
2023-02-11T13:17:00.426Z,97232.16
2023-02-11T13:22:02.976Z,97225.38
2023-02-11T13:27:05.506Z,97220.41
2023-02-11T13:32:08.171Z,97198.13
2023-02-11T13:37:10.632Z,97201.09
2023-02-11T13:42:13.220Z,97198.13
2023-02-11T13:47:16.672Z,97195.81
2023-02-11T13:52:19.086Z,97208.78
2023-02-11T13:57:21.441Z,97204.25
2023-02-11T14:02:41.512Z,97210.78
2023-02-11T14:08:01.407Z,97205.03
2023-02-11T14:13:03.827Z,97204.13
2023-02-11T14:18:06.128Z,97200.66
2023-02-11T14:23:08.497Z,97200.41
2023-02-11T14:28:10.984Z,97196.28
2023-02-11T14:33:13.296Z,97213.16
2023-02-11T14:38:15.638Z,97208.63
2023-02-11T14:43:17.971Z,97210.00
2023-02-11T14:48:20.294Z,97207.88
2023-02-11T14:53:22.561Z,97218.34
2023-02-11T14:58:24.941Z,97215.34
2023-02-11T15:03:27.326Z,97222.38
2023-02-11T15:08:30.034Z,97222.97
2023-02-11T15:13:32.352Z,97224.63
2023-02-11T15:18:34.609Z,97221.78
2023-02-11T15:23:37.089Z,97230.00
2023-02-11T15:28:39.447Z,97233.78
2023-02-11T15:33:41.725Z,97229.69
2023-02-11T15:38:44.248Z,97240.19
2023-02-11T15:43:46.601Z,97247.16
2023-02-11T15:48:48.911Z,97248.59
2023-02-11T15:53:53.004Z,97246.97
2023-02-11T15:58:55.366Z,97253.09
2023-02-11T16:03:57.818Z,97257.63
2023-02-11T16:09:00.171Z,97255.78
2023-02-11T16:14:05.173Z,97244.09
2023-02-11T16:19:09.244Z,97258.44
2023-02-11T16:24:11.573Z,97271.91
2023-02-11T16:29:13.878Z,97280.72
2023-02-11T16:34:16.233Z,97280.13
2023-02-11T16:39:18.535Z,97284.41
2023-02-11T16:44:20.819Z,97286.66
2023-02-11T16:49:23.158Z,97294.41
2023-02-11T16:54:25.470Z,97314.22
2023-02-11T16:59:27.758Z,97302.53
2023-02-11T17:04:30.208Z,97313.06
2023-02-11T17:09:32.654Z,97313.06
2023-02-11T17:14:34.955Z,97324.94
2023-02-11T17:19:37.223Z,97345.00
2023-02-11T17:24:39.509Z,97348.53
2023-02-11T17:29:41.972Z,97349.09
2023-02-11T17:34:44.667Z,97358.19
2023-02-11T17:39:47.056Z,97355.81
2023-02-11T17:44:49.517Z,97367.41
2023-02-11T17:49:51.887Z,97378.66
2023-02-11T17:54:54.259Z,97374.06
2023-02-11T17:59:56.757Z,97384.75
2023-02-11T18:05:00.205Z,97385.06
2023-02-11T18:10:02.631Z,97388.75
2023-02-11T18:15:05.524Z,97393.69
2023-02-11T18:20:08.008Z,97396.47
2023-02-11T18:25:10.439Z,97401.41
2023-02-11T18:30:12.762Z,97400.09
2023-02-11T18:35:15.900Z,97393.44
2023-02-11T18:40:18.240Z,97389.06
2023-02-11T18:45:20.555Z,97404.13
2023-02-11T18:50:23.018Z,97397.97
2023-02-11T18:55:26.433Z,97397.22
2023-02-11T19:00:28.857Z,97391.59
2023-02-11T19:05:33.502Z,97397.97
2023-02-11T19:10:36.000Z,97395.22
2023-02-11T19:15:38.446Z,97392.91
2023-02-11T19:20:40.865Z,97387.03
2023-02-11T19:25:43.330Z,97396.09
2023-02-11T19:30:45.878Z,97399.13
2023-02-11T19:35:48.236Z,97391.91
2023-02-11T19:40:50.624Z,97398.06
2023-02-11T19:45:54.223Z,97395.84
2023-02-11T19:50:56.904Z,97387.88
2023-02-11T19:55:59.323Z,97398.97
2023-02-11T20:01:02.112Z,97390.28
2023-02-11T20:06:04.829Z,97392.78
2023-02-11T20:11:07.619Z,97396.06
2023-02-11T20:16:10.742Z,97391.81
2023-02-11T20:21:13.130Z,97389.72
2023-02-11T20:26:15.611Z,97412.28
2023-02-11T20:31:18.075Z,97411.94
2023-02-11T20:36:20.412Z,97425.41
2023-02-11T20:41:22.716Z,97430.22
2023-02-11T20:46:25.061Z,97428.38
2023-02-11T20:51:27.398Z,97419.38
2023-02-11T20:56:29.784Z,97428.22
2023-02-11T21:01:32.243Z,97427.84
2023-02-11T21:06:34.681Z,97429.13
2023-02-11T21:11:37.168Z,97422.94
2023-02-11T21:16:39.544Z,97431.53
2023-02-11T21:21:41.919Z,97438.69
2023-02-11T21:26:44.584Z,97439.88
2023-02-11T21:31:47.125Z,97439.53
2023-02-11T21:36:51.210Z,97427.22
2023-02-11T21:41:55.785Z,97424.69
2023-02-11T21:46:58.229Z,97421.00
2023-02-11T21:52:00.838Z,97423.50
2023-02-11T21:57:04.138Z,97419.00
2023-02-11T22:02:06.551Z,97419.38
2023-02-11T22:07:12.650Z,97423.00
2023-02-11T22:12:15.115Z,97413.16
2023-02-11T22:17:17.571Z,97414.19
2023-02-11T22:22:19.995Z,97412.81
2023-02-11T22:27:22.449Z,97417.00
2023-02-11T22:32:24.861Z,97418.06
2023-02-11T22:37:27.455Z,97432.34
2023-02-11T22:42:30.051Z,97439.91
2023-02-11T22:47:32.407Z,97436.69
2023-02-11T22:52:34.827Z,97448.78
2023-02-11T22:57:37.248Z,97438.91
2023-02-11T23:02:39.660Z,97453.16
2023-02-11T23:07:42.167Z,97457.13
2023-02-11T23:12:44.667Z,97466.13
2023-02-11T23:17:47.009Z,97469.06
2023-02-11T23:22:49.369Z,97464.94
2023-02-11T23:27:51.753Z,97466.66
2023-02-11T23:32:54.072Z,97471.16
2023-02-11T23:37:56.527Z,97478.06
2023-02-11T23:42:59.051Z,97469.06
2023-02-11T23:48:01.400Z,97476.38
2023-02-11T23:53:03.794Z,97493.03
2023-02-11T23:58:06.326Z,97498.75
